sensor_id;sensor_type;location;lat;lon;timestamp;P1;durP1;ratioP1;P2;durP2;ratioP2
50757;SDS011;36732;47.980;11.652;2024-01-15T00:01:55;1.52;;;1.42;;
50757;SDS011;36732;47.980;11.652;2024-01-15T00:04:21;1.85;;;1.33;;
50757;SDS011;36732;47.980;11.652;2024-01-15T00:06:47;2.65;;;1.67;;
50757;SDS011;36732;47.980;11.652;2024-01-15T00:09:12;1.83;;;1.10;;
50757;SDS011;36732;47.980;11.652;2024-01-15T00:11:38;1.88;;;1.45;;
50757;SDS011;36732;47.980;11.652;2024-01-15T00:14:04;1.40;;;1.27;;
50757;SDS011;36732;47.980;11.652;2024-01-15T00:16:29;2.20;;;1.60;;
50757;SDS011;36732;47.980;11.652;2024-01-15T00:18:55;1.48;;;1.02;;
50757;SDS011;36732;47.980;11.652;2024-01-15T00:21:21;2.13;;;1.60;;
50757;SDS011;36732;47.980;11.652;2024-01-15T00:23:47;1.75;;;1.30;;
50757;SDS011;36732;47.980;11.652;2024-01-15T00:26:12;2.55;;;1.55;;
50757;SDS011;36732;47.980;11.652;2024-01-15T00:28:38;2.30;;;1.50;;
50757;SDS011;36732;47.980;11.652;2024-01-15T00:31:04;2.47;;;1.67;;
50757;SDS011;36732;47.980;11.652;2024-01-15T00:33:30;2.70;;;1.50;;
50757;SDS011;36732;47.980;11.652;2024-01-15T00:35:56;3.38;;;1.83;;
50757;SDS011;36732;47.980;11.652;2024-01-15T00:38:21;2.35;;;1.30;;
50757;SDS011;36732;47.980;11.652;2024-01-15T00:40:47;2.45;;;1.65;;
50757;SDS011;36732;47.980;11.652;2024-01-15T00:43:13;2.35;;;1.55;;
50757;SDS011;36732;47.980;11.652;2024-01-15T00:45:40;2.30;;;1.67;;
50757;SDS011;36732;47.980;11.652;2024-01-15T00:48:06;2.53;;;1.75;;
50757;SDS011;36732;47.980;11.652;2024-01-15T00:50:32;2.55;;;1.42;;
50757;SDS011;36732;47.980;11.652;2024-01-15T00:52:58;1.80;;;1.20;;
50757;SDS011;36732;47.980;11.652;2024-01-15T00:55:23;2.85;;;1.60;;
50757;SDS011;36732;47.980;11.652;2024-01-15T00:57:49;2.15;;;1.17;;
50757;SDS011;36732;47.980;11.652;2024-01-15T01:00:15;2.38;;;1.10;;
50757;SDS011;36732;47.980;11.652;2024-01-15T01:02:41;2.40;;;1.40;;
50757;SDS011;36732;47.980;11.652;2024-01-15T01:05:07;2.70;;;1.55;;
50757;SDS011;36732;47.980;11.652;2024-01-15T01:07:32;3.83;;;2.10;;
50757;SDS011;36732;47.980;11.652;2024-01-15T01:09:58;1.92;;;1.25;;
50757;SDS011;36732;47.980;11.652;2024-01-15T01:12:24;3.40;;;2.05;;
50757;SDS011;36732;47.980;11.652;2024-01-15T01:14:49;2.58;;;1.77;;
50757;SDS011;36732;47.980;11.652;2024-01-15T01:17:18;2.85;;;1.67;;
50757;SDS011;36732;47.980;11.652;2024-01-15T01:19:44;2.95;;;1.45;;
50757;SDS011;36732;47.980;11.652;2024-01-15T01:22:09;2.53;;;1.75;;
50757;SDS011;36732;47.980;11.652;2024-01-15T01:24:35;2.53;;;1.83;;
50757;SDS011;36732;47.980;11.652;2024-01-15T01:27:01;2.63;;;1.90;;
50757;SDS011;36732;47.980;11.652;2024-01-15T01:29:27;2.80;;;1.83;;
50757;SDS011;36732;47.980;11.652;2024-01-15T01:31:52;2.45;;;1.85;;
50757;SDS011;36732;47.980;11.652;2024-01-15T01:34:18;3.22;;;1.90;;
50757;SDS011;36732;47.980;11.652;2024-01-15T01:36:44;2.75;;;2.00;;
50757;SDS011;36732;47.980;11.652;2024-01-15T01:39:09;3.17;;;2.10;;
50757;SDS011;36732;47.980;11.652;2024-01-15T01:41:35;4.80;;;2.47;;
50757;SDS011;36732;47.980;11.652;2024-01-15T01:44:01;6.35;;;2.70;;
50757;SDS011;36732;47.980;11.652;2024-01-15T01:46:27;4.85;;;2.92;;
50757;SDS011;36732;47.980;11.652;2024-01-15T01:48:54;5.18;;;3.13;;
50757;SDS011;36732;47.980;11.652;2024-01-15T01:51:21;5.75;;;3.55;;
50757;SDS011;36732;47.980;11.652;2024-01-15T01:53:49;4.88;;;3.47;;
50757;SDS011;36732;47.980;11.652;2024-01-15T01:56:16;5.18;;;3.25;;
50757;SDS011;36732;47.980;11.652;2024-01-15T01:58:43;5.25;;;3.28;;
50757;SDS011;36732;47.980;11.652;2024-01-15T02:01:10;5.22;;;3.45;;
50757;SDS011;36732;47.980;11.652;2024-01-15T02:03:38;5.60;;;3.45;;
50757;SDS011;36732;47.980;11.652;2024-01-15T02:06:05;5.75;;;3.95;;
50757;SDS011;36732;47.980;11.652;2024-01-15T02:08:31;6.32;;;4.15;;
50757;SDS011;36732;47.980;11.652;2024-01-15T02:10:57;6.15;;;4.15;;
50757;SDS011;36732;47.980;11.652;2024-01-15T02:13:23;7.07;;;4.22;;
50757;SDS011;36732;47.980;11.652;2024-01-15T02:15:48;7.57;;;4.25;;
50757;SDS011;36732;47.980;11.652;2024-01-15T02:18:14;5.88;;;3.97;;
50757;SDS011;36732;47.980;11.652;2024-01-15T02:20:40;5.20;;;3.90;;
50757;SDS011;36732;47.980;11.652;2024-01-15T02:25:37;5.65;;;3.60;;
50757;SDS011;36732;47.980;11.652;2024-01-15T02:28:08;7.18;;;4.35;;
50757;SDS011;36732;47.980;11.652;2024-01-15T02:30:39;6.90;;;4.07;;
50757;SDS011;36732;47.980;11.652;2024-01-15T02:33:07;5.70;;;3.95;;
50757;SDS011;36732;47.980;11.652;2024-01-15T02:35:33;8.13;;;4.85;;
50757;SDS011;36732;47.980;11.652;2024-01-15T02:38:03;7.85;;;4.88;;
50757;SDS011;36732;47.980;11.652;2024-01-15T02:40:29;6.20;;;4.25;;
50757;SDS011;36732;47.980;11.652;2024-01-15T02:42:55;6.60;;;4.00;;
50757;SDS011;36732;47.980;11.652;2024-01-15T02:45:21;6.32;;;4.22;;
50757;SDS011;36732;47.980;11.652;2024-01-15T02:47:47;7.85;;;4.78;;
50757;SDS011;36732;47.980;11.652;2024-01-15T02:50:13;8.63;;;4.82;;
50757;SDS011;36732;47.980;11.652;2024-01-15T02:52:39;6.60;;;4.47;;
50757;SDS011;36732;47.980;11.652;2024-01-15T02:55:06;6.63;;;4.18;;
50757;SDS011;36732;47.980;11.652;2024-01-15T02:57:32;7.15;;;4.32;;
50757;SDS011;36732;47.980;11.652;2024-01-15T02:59:58;6.20;;;4.40;;
50757;SDS011;36732;47.980;11.652;2024-01-15T03:02:24;7.32;;;3.92;;
50757;SDS011;36732;47.980;11.652;2024-01-15T03:04:49;6.38;;;4.03;;
50757;SDS011;36732;47.980;11.652;2024-01-15T03:07:15;5.53;;;3.67;;
50757;SDS011;36732;47.980;11.652;2024-01-15T03:09:41;6.22;;;4.00;;
50757;SDS011;36732;47.980;11.652;2024-01-15T03:12:07;5.93;;;4.00;;
50757;SDS011;36732;47.980;11.652;2024-01-15T03:14:33;7.45;;;4.43;;
50757;SDS011;36732;47.980;11.652;2024-01-15T03:16:58;6.25;;;4.00;;
50757;SDS011;36732;47.980;11.652;2024-01-15T03:19:25;5.88;;;4.00;;
50757;SDS011;36732;47.980;11.652;2024-01-15T03:21:51;7.63;;;3.63;;
50757;SDS011;36732;47.980;11.652;2024-01-15T03:24:17;4.50;;;3.10;;
50757;SDS011;36732;47.980;11.652;2024-01-15T03:26:42;6.90;;;3.63;;
50757;SDS011;36732;47.980;11.652;2024-01-15T03:29:08;5.57;;;3.30;;
50757;SDS011;36732;47.980;11.652;2024-01-15T03:31:34;6.47;;;2.95;;
50757;SDS011;36732;47.980;11.652;2024-01-15T03:34:00;5.45;;;3.30;;
50757;SDS011;36732;47.980;11.652;2024-01-15T03:36:25;4.55;;;2.92;;
50757;SDS011;36732;47.980;11.652;2024-01-15T03:38:51;5.22;;;3.28;;
50757;SDS011;36732;47.980;11.652;2024-01-15T03:41:17;5.43;;;3.38;;
50757;SDS011;36732;47.980;11.652;2024-01-15T03:43:42;5.50;;;2.90;;
50757;SDS011;36732;47.980;11.652;2024-01-15T03:46:08;4.72;;;3.15;;
50757;SDS011;36732;47.980;11.652;2024-01-15T03:48:34;5.10;;;3.42;;
50757;SDS011;36732;47.980;11.652;2024-01-15T03:51:00;3.72;;;2.80;;
50757;SDS011;36732;47.980;11.652;2024-01-15T03:53:25;5.63;;;3.03;;
50757;SDS011;36732;47.980;11.652;2024-01-15T03:55:51;4.43;;;2.78;;
50757;SDS011;36732;47.980;11.652;2024-01-15T03:58:17;4.85;;;3.10;;
50757;SDS011;36732;47.980;11.652;2024-01-15T04:00:43;3.17;;;2.15;;
50757;SDS011;36732;47.980;11.652;2024-01-15T04:03:09;3.60;;;2.55;;
50757;SDS011;36732;47.980;11.652;2024-01-15T04:05:35;5.13;;;2.42;;
50757;SDS011;36732;47.980;11.652;2024-01-15T04:08:00;5.32;;;2.85;;
50757;SDS011;36732;47.980;11.652;2024-01-15T04:10:26;3.70;;;2.50;;
50757;SDS011;36732;47.980;11.652;2024-01-15T04:12:52;4.00;;;2.42;;
50757;SDS011;36732;47.980;11.652;2024-01-15T04:15:18;3.83;;;2.50;;
50757;SDS011;36732;47.980;11.652;2024-01-15T04:17:43;3.60;;;2.42;;
50757;SDS011;36732;47.980;11.652;2024-01-15T04:20:09;3.47;;;2.22;;
50757;SDS011;36732;47.980;11.652;2024-01-15T04:22:36;4.18;;;2.58;;
50757;SDS011;36732;47.980;11.652;2024-01-15T04:25:02;3.03;;;2.05;;
50757;SDS011;36732;47.980;11.652;2024-01-15T04:27:28;3.83;;;2.47;;
50757;SDS011;36732;47.980;11.652;2024-01-15T04:29:54;3.00;;;2.30;;
50757;SDS011;36732;47.980;11.652;2024-01-15T04:32:20;3.78;;;2.40;;
50757;SDS011;36732;47.980;11.652;2024-01-15T04:34:46;3.33;;;2.30;;
50757;SDS011;36732;47.980;11.652;2024-01-15T04:37:13;3.65;;;2.17;;
50757;SDS011;36732;47.980;11.652;2024-01-15T04:39:39;4.13;;;2.53;;
50757;SDS011;36732;47.980;11.652;2024-01-15T04:42:04;4.80;;;2.53;;
50757;SDS011;36732;47.980;11.652;2024-01-15T04:44:30;3.65;;;2.30;;
50757;SDS011;36732;47.980;11.652;2024-01-15T04:46:56;3.42;;;2.03;;
50757;SDS011;36732;47.980;11.652;2024-01-15T04:49:22;3.08;;;2.15;;
50757;SDS011;36732;47.980;11.652;2024-01-15T04:51:47;3.45;;;1.98;;
50757;SDS011;36732;47.980;11.652;2024-01-15T04:54:13;2.55;;;1.80;;
50757;SDS011;36732;47.980;11.652;2024-01-15T04:56:42;3.08;;;2.00;;
50757;SDS011;36732;47.980;11.652;2024-01-15T04:59:09;3.25;;;2.35;;
50757;SDS011;36732;47.980;11.652;2024-01-15T05:01:35;3.40;;;2.08;;
50757;SDS011;36732;47.980;11.652;2024-01-15T05:04:01;3.78;;;2.22;;
50757;SDS011;36732;47.980;11.652;2024-01-15T05:06:27;2.97;;;1.77;;
50757;SDS011;36732;47.980;11.652;2024-01-15T05:08:53;2.95;;;1.80;;
50757;SDS011;36732;47.980;11.652;2024-01-15T05:11:19;4.20;;;2.78;;
50757;SDS011;36732;47.980;11.652;2024-01-15T05:13:45;2.95;;;2.17;;
50757;SDS011;36732;47.980;11.652;2024-01-15T05:16:10;2.88;;;1.85;;
50757;SDS011;36732;47.980;11.652;2024-01-15T05:18:36;3.25;;;1.95;;
50757;SDS011;36732;47.980;11.652;2024-01-15T05:21:02;3.35;;;1.95;;
50757;SDS011;36732;47.980;11.652;2024-01-15T05:23:28;3.20;;;2.13;;
50757;SDS011;36732;47.980;11.652;2024-01-15T05:25:56;3.05;;;2.13;;
50757;SDS011;36732;47.980;11.652;2024-01-15T05:28:22;5.40;;;2.90;;
50757;SDS011;36732;47.980;11.652;2024-01-15T05:30:47;5.30;;;3.28;;
50757;SDS011;36732;47.980;11.652;2024-01-15T05:33:15;7.43;;;4.00;;
50757;SDS011;36732;47.980;11.652;2024-01-15T05:35:41;7.70;;;4.07;;
50757;SDS011;36732;47.980;11.652;2024-01-15T05:38:07;7.18;;;4.45;;
50757;SDS011;36732;47.980;11.652;2024-01-15T05:40:33;5.72;;;3.38;;
50757;SDS011;36732;47.980;11.652;2024-01-15T05:42:59;6.20;;;2.97;;
50757;SDS011;36732;47.980;11.652;2024-01-15T05:45:28;4.90;;;3.03;;
50757;SDS011;36732;47.980;11.652;2024-01-15T05:47:55;4.55;;;2.35;;
50757;SDS011;36732;47.980;11.652;2024-01-15T05:50:21;3.70;;;2.45;;
50757;SDS011;36732;47.980;11.652;2024-01-15T05:52:47;2.58;;;1.65;;
50757;SDS011;36732;47.980;11.652;2024-01-15T05:55:13;4.47;;;1.80;;
50757;SDS011;36732;47.980;11.652;2024-01-15T05:57:39;4.38;;;2.42;;
50757;SDS011;36732;47.980;11.652;2024-01-15T06:00:04;3.67;;;2.20;;
50757;SDS011;36732;47.980;11.652;2024-01-15T06:02:31;3.15;;;2.00;;
50757;SDS011;36732;47.980;11.652;2024-01-15T06:04:57;2.65;;;1.80;;
50757;SDS011;36732;47.980;11.652;2024-01-15T06:07:22;3.70;;;2.35;;
50757;SDS011;36732;47.980;11.652;2024-01-15T06:09:49;3.10;;;2.17;;
50757;SDS011;36732;47.980;11.652;2024-01-15T06:12:14;3.75;;;2.33;;
50757;SDS011;36732;47.980;11.652;2024-01-15T06:14:40;4.05;;;2.67;;
50757;SDS011;36732;47.980;11.652;2024-01-15T06:17:07;3.15;;;2.33;;
50757;SDS011;36732;47.980;11.652;2024-01-15T06:19:33;5.70;;;3.08;;
50757;SDS011;36732;47.980;11.652;2024-01-15T06:21:59;3.28;;;2.10;;
50757;SDS011;36732;47.980;11.652;2024-01-15T06:24:24;2.75;;;2.05;;
50757;SDS011;36732;47.980;11.652;2024-01-15T06:26:50;3.75;;;2.47;;
50757;SDS011;36732;47.980;11.652;2024-01-15T06:29:16;4.03;;;2.33;;
50757;SDS011;36732;47.980;11.652;2024-01-15T06:31:42;4.60;;;2.50;;
50757;SDS011;36732;47.980;11.652;2024-01-15T06:34:07;3.17;;;2.00;;
50757;SDS011;36732;47.980;11.652;2024-01-15T06:36:33;4.63;;;3.10;;
50757;SDS011;36732;47.980;11.652;2024-01-15T06:38:59;3.92;;;2.53;;
50757;SDS011;36732;47.980;11.652;2024-01-15T06:41:24;3.72;;;2.90;;
50757;SDS011;36732;47.980;11.652;2024-01-15T06:43:50;3.92;;;2.55;;
50757;SDS011;36732;47.980;11.652;2024-01-15T06:46:22;6.40;;;2.97;;
50757;SDS011;36732;47.980;11.652;2024-01-15T06:48:48;5.32;;;2.72;;
50757;SDS011;36732;47.980;11.652;2024-01-15T06:51:15;5.10;;;2.85;;
50757;SDS011;36732;47.980;11.652;2024-01-15T06:53:41;5.18;;;2.65;;
50757;SDS011;36732;47.980;11.652;2024-01-15T06:56:06;3.88;;;2.63;;
50757;SDS011;36732;47.980;11.652;2024-01-15T06:58:33;3.92;;;2.88;;
50757;SDS011;36732;47.980;11.652;2024-01-15T07:00:59;4.07;;;2.53;;
50757;SDS011;36732;47.980;11.652;2024-01-15T07:03:25;4.75;;;2.53;;
50757;SDS011;36732;47.980;11.652;2024-01-15T07:05:50;3.05;;;2.30;;
50757;SDS011;36732;47.980;11.652;2024-01-15T07:08:16;3.97;;;2.63;;
50757;SDS011;36732;47.980;11.652;2024-01-15T07:10:42;5.18;;;2.70;;
50757;SDS011;36732;47.980;11.652;2024-01-15T07:13:08;2.72;;;2.15;;
50757;SDS011;36732;47.980;11.652;2024-01-15T07:15:34;4.68;;;2.83;;
50757;SDS011;36732;47.980;11.652;2024-01-15T07:17:59;4.25;;;2.88;;
50757;SDS011;36732;47.980;11.652;2024-01-15T07:20:25;4.13;;;3.20;;
50757;SDS011;36732;47.980;11.652;2024-01-15T07:22:51;4.45;;;3.00;;
50757;SDS011;36732;47.980;11.652;2024-01-15T07:25:16;3.65;;;2.60;;
50757;SDS011;36732;47.980;11.652;2024-01-15T07:27:42;4.28;;;2.92;;
50757;SDS011;36732;47.980;11.652;2024-01-15T07:30:10;3.85;;;2.97;;
50757;SDS011;36732;47.980;11.652;2024-01-15T07:32:37;4.70;;;3.17;;
50757;SDS011;36732;47.980;11.652;2024-01-15T07:35:03;4.72;;;3.10;;
50757;SDS011;36732;47.980;11.652;2024-01-15T07:37:29;4.82;;;3.42;;
50757;SDS011;36732;47.980;11.652;2024-01-15T07:39:55;5.82;;;4.13;;
50757;SDS011;36732;47.980;11.652;2024-01-15T07:42:20;5.57;;;3.85;;
50757;SDS011;36732;47.980;11.652;2024-01-15T07:44:46;6.75;;;4.05;;
50757;SDS011;36732;47.980;11.652;2024-01-15T07:47:12;7.35;;;3.90;;
50757;SDS011;36732;47.980;11.652;2024-01-15T07:49:38;5.65;;;3.70;;
50757;SDS011;36732;47.980;11.652;2024-01-15T07:52:03;5.70;;;3.60;;
50757;SDS011;36732;47.980;11.652;2024-01-15T07:54:30;4.82;;;3.10;;
50757;SDS011;36732;47.980;11.652;2024-01-15T07:56:57;4.20;;;3.15;;
50757;SDS011;36732;47.980;11.652;2024-01-15T07:59:28;4.78;;;3.20;;
50757;SDS011;36732;47.980;11.652;2024-01-15T08:01:54;3.75;;;2.95;;
50757;SDS011;36732;47.980;11.652;2024-01-15T08:04:20;5.70;;;3.47;;
50757;SDS011;36732;47.980;11.652;2024-01-15T08:06:47;4.97;;;2.90;;
50757;SDS011;36732;47.980;11.652;2024-01-15T08:09:12;4.00;;;2.70;;
50757;SDS011;36732;47.980;11.652;2024-01-15T08:11:44;3.50;;;2.67;;
50757;SDS011;36732;47.980;11.652;2024-01-15T08:14:10;5.22;;;3.03;;
50757;SDS011;36732;47.980;11.652;2024-01-15T08:16:37;5.03;;;3.17;;
50757;SDS011;36732;47.980;11.652;2024-01-15T08:19:03;5.35;;;3.50;;
50757;SDS011;36732;47.980;11.652;2024-01-15T08:21:29;3.67;;;2.80;;
50757;SDS011;36732;47.980;11.652;2024-01-15T08:23:56;4.65;;;3.25;;
50757;SDS011;36732;47.980;11.652;2024-01-15T08:26:22;4.18;;;2.78;;
50757;SDS011;36732;47.980;11.652;2024-01-15T08:28:48;4.53;;;2.78;;
50757;SDS011;36732;47.980;11.652;2024-01-15T08:31:13;4.35;;;2.88;;
50757;SDS011;36732;47.980;11.652;2024-01-15T08:33:39;7.25;;;3.47;;
50757;SDS011;36732;47.980;11.652;2024-01-15T08:36:05;4.57;;;2.88;;
50757;SDS011;36732;47.980;11.652;2024-01-15T08:38:31;6.38;;;3.72;;
50757;SDS011;36732;47.980;11.652;2024-01-15T08:40:56;5.82;;;3.33;;
50757;SDS011;36732;47.980;11.652;2024-01-15T08:43:24;5.28;;;3.10;;
50757;SDS011;36732;47.980;11.652;2024-01-15T08:45:49;5.13;;;3.58;;
50757;SDS011;36732;47.980;11.652;2024-01-15T08:48:16;4.43;;;3.20;;
50757;SDS011;36732;47.980;11.652;2024-01-15T08:50:41;4.55;;;3.10;;
50757;SDS011;36732;47.980;11.652;2024-01-15T08:53:07;3.92;;;3.00;;
50757;SDS011;36732;47.980;11.652;2024-01-15T08:55:33;5.63;;;3.55;;
50757;SDS011;36732;47.980;11.652;2024-01-15T08:57:59;6.90;;;3.17;;
50757;SDS011;36732;47.980;11.652;2024-01-15T09:00:24;5.70;;;3.65;;
50757;SDS011;36732;47.980;11.652;2024-01-15T09:02:50;4.88;;;3.20;;
50757;SDS011;36732;47.980;11.652;2024-01-15T09:05:16;5.32;;;3.47;;
50757;SDS011;36732;47.980;11.652;2024-01-15T09:07:41;7.43;;;3.35;;
50757;SDS011;36732;47.980;11.652;2024-01-15T09:10:07;2.45;;;2.10;;
50757;SDS011;36732;47.980;11.652;2024-01-15T09:12:33;4.13;;;3.08;;
50757;SDS011;36732;47.980;11.652;2024-01-15T09:14:59;5.72;;;3.42;;
50757;SDS011;36732;47.980;11.652;2024-01-15T09:17:25;3.63;;;2.45;;
50757;SDS011;36732;47.980;11.652;2024-01-15T09:19:53;4.50;;;3.00;;
50757;SDS011;36732;47.980;11.652;2024-01-15T09:22:18;4.18;;;2.70;;
50757;SDS011;36732;47.980;11.652;2024-01-15T09:24:44;6.10;;;3.35;;
50757;SDS011;36732;47.980;11.652;2024-01-15T09:27:10;4.47;;;3.03;;
50757;SDS011;36732;47.980;11.652;2024-01-15T09:29:36;3.42;;;2.65;;
50757;SDS011;36732;47.980;11.652;2024-01-15T09:32:05;4.35;;;2.85;;
50757;SDS011;36732;47.980;11.652;2024-01-15T09:34:32;4.10;;;2.58;;
50757;SDS011;36732;47.980;11.652;2024-01-15T09:36:58;4.43;;;2.78;;
50757;SDS011;36732;47.980;11.652;2024-01-15T09:39:28;3.00;;;2.33;;
50757;SDS011;36732;47.980;11.652;2024-01-15T09:41:54;5.53;;;3.28;;
50757;SDS011;36732;47.980;11.652;2024-01-15T09:44:20;4.25;;;2.85;;
50757;SDS011;36732;47.980;11.652;2024-01-15T09:46:46;3.20;;;2.17;;
50757;SDS011;36732;47.980;11.652;2024-01-15T09:49:15;2.75;;;2.17;;
50757;SDS011;36732;47.980;11.652;2024-01-15T09:51:42;3.58;;;2.38;;
50757;SDS011;36732;47.980;11.652;2024-01-15T09:54:08;5.03;;;2.65;;
50757;SDS011;36732;47.980;11.652;2024-01-15T09:56:34;3.92;;;2.35;;
50757;SDS011;36732;47.980;11.652;2024-01-15T09:59:00;4.63;;;2.55;;
50757;SDS011;36732;47.980;11.652;2024-01-15T10:01:27;2.78;;;2.10;;
50757;SDS011;36732;47.980;11.652;2024-01-15T10:03:54;3.60;;;2.35;;
50757;SDS011;36732;47.980;11.652;2024-01-15T10:06:21;3.50;;;2.33;;
50757;SDS011;36732;47.980;11.652;2024-01-15T10:08:50;3.13;;;2.33;;
50757;SDS011;36732;47.980;11.652;2024-01-15T10:11:16;2.92;;;2.10;;
50757;SDS011;36732;47.980;11.652;2024-01-15T10:13:43;3.20;;;2.10;;
50757;SDS011;36732;47.980;11.652;2024-01-15T10:16:09;3.88;;;2.45;;
50757;SDS011;36732;47.980;11.652;2024-01-15T10:18:36;4.50;;;2.70;;
50757;SDS011;36732;47.980;11.652;2024-01-15T10:21:02;3.55;;;2.08;;
50757;SDS011;36732;47.980;11.652;2024-01-15T10:23:29;3.20;;;2.00;;
50757;SDS011;36732;47.980;11.652;2024-01-15T10:25:57;3.20;;;1.85;;
50757;SDS011;36732;47.980;11.652;2024-01-15T10:28:23;4.15;;;2.45;;
50757;SDS011;36732;47.980;11.652;2024-01-15T10:30:53;2.78;;;2.05;;
50757;SDS011;36732;47.980;11.652;2024-01-15T10:33:21;3.78;;;2.08;;
50757;SDS011;36732;47.980;11.652;2024-01-15T10:35:50;3.63;;;2.17;;
50757;SDS011;36732;47.980;11.652;2024-01-15T10:38:20;3.10;;;2.10;;
50757;SDS011;36732;47.980;11.652;2024-01-15T10:40:47;3.90;;;2.25;;
50757;SDS011;36732;47.980;11.652;2024-01-15T10:43:16;3.28;;;2.00;;
50757;SDS011;36732;47.980;11.652;2024-01-15T10:45:45;2.45;;;2.05;;
50757;SDS011;36732;47.980;11.652;2024-01-15T10:48:16;4.20;;;2.58;;
50757;SDS011;36732;47.980;11.652;2024-01-15T10:50:47;3.00;;;2.10;;
50757;SDS011;36732;47.980;11.652;2024-01-15T10:53:14;3.88;;;2.35;;
50757;SDS011;36732;47.980;11.652;2024-01-15T10:55:42;3.22;;;2.10;;
50757;SDS011;36732;47.980;11.652;2024-01-15T10:58:08;4.95;;;2.55;;
50757;SDS011;36732;47.980;11.652;2024-01-15T11:00:35;2.33;;;1.77;;
50757;SDS011;36732;47.980;11.652;2024-01-15T11:03:05;2.17;;;1.55;;
50757;SDS011;36732;47.980;11.652;2024-01-15T11:05:44;3.15;;;1.77;;
50757;SDS011;36732;47.980;11.652;2024-01-15T11:08:10;2.28;;;1.83;;
50757;SDS011;36732;47.980;11.652;2024-01-15T11:10:44;2.38;;;1.77;;
50757;SDS011;36732;47.980;11.652;2024-01-15T11:13:15;2.85;;;1.52;;
50757;SDS011;36732;47.980;11.652;2024-01-15T11:18:22;1.92;;;1.40;;
50757;SDS011;36732;47.980;11.652;2024-01-15T11:21:21;3.13;;;1.30;;
50757;SDS011;36732;47.980;11.652;2024-01-15T11:23:45;2.83;;;1.67;;
50757;SDS011;36732;47.980;11.652;2024-01-15T11:26:33;1.98;;;1.25;;
50757;SDS011;36732;47.980;11.652;2024-01-15T11:34:20;2.05;;;1.23;;
50757;SDS011;36732;47.980;11.652;2024-01-15T11:37:23;2.42;;;1.30;;
50757;SDS011;36732;47.980;11.652;2024-01-15T11:39:52;3.47;;;1.70;;
50757;SDS011;36732;47.980;11.652;2024-01-15T11:42:20;3.03;;;1.60;;
50757;SDS011;36732;47.980;11.652;2024-01-15T11:44:49;2.85;;;1.77;;
50757;SDS011;36732;47.980;11.652;2024-01-15T11:47:15;5.15;;;2.95;;
50757;SDS011;36732;47.980;11.652;2024-01-15T11:49:50;7.75;;;3.55;;
50757;SDS011;36732;47.980;11.652;2024-01-15T11:52:37;6.68;;;4.00;;
50757;SDS011;36732;47.980;11.652;2024-01-15T11:57:50;4.73;;;1.70;;
50757;SDS011;36732;47.980;11.652;2024-01-15T12:00:20;2.95;;;1.73;;
50757;SDS011;36732;47.980;11.652;2024-01-15T12:02:47;3.30;;;1.88;;
50757;SDS011;36732;47.980;11.652;2024-01-15T12:05:14;2.70;;;1.75;;
50757;SDS011;36732;47.980;11.652;2024-01-15T12:07:42;2.30;;;1.83;;
50757;SDS011;36732;47.980;11.652;2024-01-15T12:10:13;3.25;;;1.88;;
50757;SDS011;36732;47.980;11.652;2024-01-15T12:15:24;2.38;;;1.58;;
50757;SDS011;36732;47.980;11.652;2024-01-15T12:17:52;1.38;;;1.20;;
50757;SDS011;36732;47.980;11.652;2024-01-15T12:20:22;3.45;;;1.80;;
50757;SDS011;36732;47.980;11.652;2024-01-15T12:22:49;2.85;;;1.85;;
50757;SDS011;36732;47.980;11.652;2024-01-15T12:25:15;2.20;;;1.60;;
50757;SDS011;36732;47.980;11.652;2024-01-15T12:27:40;1.67;;;1.20;;
50757;SDS011;36732;47.980;11.652;2024-01-15T12:30:06;1.95;;;1.25;;
50757;SDS011;36732;47.980;11.652;2024-01-15T12:32:36;2.45;;;1.50;;
50757;SDS011;36732;47.980;11.652;2024-01-15T12:35:02;2.72;;;1.60;;
50757;SDS011;36732;47.980;11.652;2024-01-15T12:37:29;3.17;;;1.40;;
50757;SDS011;36732;47.980;11.652;2024-01-15T12:39:55;5.00;;;2.28;;
50757;SDS011;36732;47.980;11.652;2024-01-15T12:42:21;3.25;;;2.13;;
50757;SDS011;36732;47.980;11.652;2024-01-15T12:44:47;2.92;;;2.03;;
50757;SDS011;36732;47.980;11.652;2024-01-15T12:47:12;2.63;;;1.90;;
50757;SDS011;36732;47.980;11.652;2024-01-15T12:49:39;2.47;;;1.80;;
50757;SDS011;36732;47.980;11.652;2024-01-15T12:52:08;2.42;;;1.58;;
50757;SDS011;36732;47.980;11.652;2024-01-15T12:54:34;1.85;;;1.40;;
50757;SDS011;36732;47.980;11.652;2024-01-15T12:57:00;2.65;;;1.55;;
50757;SDS011;36732;47.980;11.652;2024-01-15T12:59:26;3.90;;;2.13;;
50757;SDS011;36732;47.980;11.652;2024-01-15T13:01:52;2.05;;;1.65;;
50757;SDS011;36732;47.980;11.652;2024-01-15T13:04:21;3.45;;;2.03;;
50757;SDS011;36732;47.980;11.652;2024-01-15T13:06:49;2.60;;;1.83;;
50757;SDS011;36732;47.980;11.652;2024-01-15T13:09:18;2.45;;;1.83;;
50757;SDS011;36732;47.980;11.652;2024-01-15T13:11:47;2.35;;;1.73;;
50757;SDS011;36732;47.980;11.652;2024-01-15T13:14:12;2.72;;;1.88;;
50757;SDS011;36732;47.980;11.652;2024-01-15T13:16:42;2.80;;;1.98;;
50757;SDS011;36732;47.980;11.652;2024-01-15T13:19:08;2.35;;;1.75;;
50757;SDS011;36732;47.980;11.652;2024-01-15T13:21:36;1.77;;;1.40;;
50757;SDS011;36732;47.980;11.652;2024-01-15T13:24:02;3.30;;;1.92;;
50757;SDS011;36732;47.980;11.652;2024-01-15T13:26:30;1.52;;;1.38;;
50757;SDS011;36732;47.980;11.652;2024-01-15T13:29:02;2.53;;;1.50;;
50757;SDS011;36732;47.980;11.652;2024-01-15T13:31:29;2.70;;;1.50;;
50757;SDS011;36732;47.980;11.652;2024-01-15T13:33:56;2.45;;;1.42;;
50757;SDS011;36732;47.980;11.652;2024-01-15T13:36:22;2.13;;;1.30;;
50757;SDS011;36732;47.980;11.652;2024-01-15T13:38:49;2.20;;;1.52;;
50757;SDS011;36732;47.980;11.652;2024-01-15T13:41:16;2.00;;;1.40;;
50757;SDS011;36732;47.980;11.652;2024-01-15T13:43:52;1.88;;;1.45;;
50757;SDS011;36732;47.980;11.652;2024-01-15T13:46:23;2.58;;;1.92;;
50757;SDS011;36732;47.980;11.652;2024-01-15T13:48:51;1.65;;;1.23;;
50757;SDS011;36732;47.980;11.652;2024-01-15T13:51:17;2.08;;;1.48;;
50757;SDS011;36732;47.980;11.652;2024-01-15T13:53:43;3.10;;;1.58;;
50757;SDS011;36732;47.980;11.652;2024-01-15T13:56:09;4.35;;;1.52;;
50757;SDS011;36732;47.980;11.652;2024-01-15T13:58:35;2.08;;;1.67;;
50757;SDS011;36732;47.980;11.652;2024-01-15T14:01:02;2.50;;;1.75;;
50757;SDS011;36732;47.980;11.652;2024-01-15T14:03:30;2.05;;;1.58;;
50757;SDS011;36732;47.980;11.652;2024-01-15T14:05:57;1.70;;;1.30;;
50757;SDS011;36732;47.980;11.652;2024-01-15T14:08:23;1.95;;;1.30;;
50757;SDS011;36732;47.980;11.652;2024-01-15T14:10:49;1.40;;;1.20;;
50757;SDS011;36732;47.980;11.652;2024-01-15T14:13:15;3.00;;;1.67;;
50757;SDS011;36732;47.980;11.652;2024-01-15T14:15:40;1.75;;;1.17;;
50757;SDS011;36732;47.980;11.652;2024-01-15T14:18:06;1.40;;;1.20;;
50757;SDS011;36732;47.980;11.652;2024-01-15T14:20:32;1.30;;;0.93;;
50757;SDS011;36732;47.980;11.652;2024-01-15T14:22:58;1.55;;;1.08;;
50757;SDS011;36732;47.980;11.652;2024-01-15T14:25:23;3.33;;;0.90;;
50757;SDS011;36732;47.980;11.652;2024-01-15T14:27:49;1.45;;;1.15;;
50757;SDS011;36732;47.980;11.652;2024-01-15T14:30:15;2.30;;;1.13;;
50757;SDS011;36732;47.980;11.652;2024-01-15T14:32:44;1.00;;;0.80;;
50757;SDS011;36732;47.980;11.652;2024-01-15T14:35:10;1.00;;;0.70;;
50757;SDS011;36732;47.980;11.652;2024-01-15T14:37:36;1.15;;;0.70;;
50757;SDS011;36732;47.980;11.652;2024-01-15T14:40:03;1.25;;;1.00;;
50757;SDS011;36732;47.980;11.652;2024-01-15T14:42:32;1.58;;;1.17;;
50757;SDS011;36732;47.980;11.652;2024-01-15T14:44:59;2.13;;;0.70;;
50757;SDS011;36732;47.980;11.652;2024-01-15T14:47:24;0.90;;;0.82;;